Time;durP1;ratioP1;P1;durP2;ratioP2;P2;SDS_P1;SDS_P2;PMS_P1;PMS_P2;Temp;Humidity;BMP_temperature;BMP_pressure;BME280_temperature;BME280_humidity;BME280_pressure;Samples;Min_cycle;Max_cycle;Signal;HPM_P1;HPM_P2
2021/07/12 00:01:48;;;;;;;72.37;46.33;;;;;;;;;;5119913;28;20453;-60
2021/07/12 00:04:30;;;;;;;41.30;23.97;;;;;;;;;;5119584;28;20455;-55
2021/07/12 00:06:57;;;;;;;13.80;11.90;;;;;;;;;;5134311;28;20509;-53
2021/07/12 00:09:24;;;;;;;10.90;9.50;;;;;;;;;;5140617;28;20484;-53
2021/07/12 00:11:52;;;;;;;11.53;10.43;;;;;;;;;;5140199;28;20468;-51
2021/07/12 00:14:21;;;;;;;10.57;9.47;;;;;;;;;;5140294;28;20498;-54
2021/07/12 00:16:48;;;;;;;12.33;10.17;;;;;;;;;;5140616;28;20434;-51
2021/07/12 00:19:22;;;;;;;17.80;13.47;;;;;;;;;;5140034;28;20559;-53
2021/07/12 00:21:51;;;;;;;20.00;13.83;;;;;;;;;;5139855;28;20445;-55
2021/07/12 00:24:20;;;;;;;17.70;15.80;;;;;;;;;;5139996;28;20446;-53
2021/07/12 00:27:09;;;;;;;27.70;23.63;;;;;;;;;;5140459;28;20458;-55
2021/07/12 00:29:36;;;;;;;19.37;15.37;;;;;;;;;;5151602;27;20485;-58
2021/07/12 00:32:04;;;;;;;52.20;44.70;;;;;;;;;;5160138;27;20432;-53
2021/07/12 00:37:36;;;;;;;28.17;18.70;;;;;;;;;;5146274;27;20480;-56
2021/07/12 00:40:04;;;;;;;12.20;8.90;;;;;;;;;;5139557;28;20438;-55
2021/07/12 00:42:54;;;;;;;14.63;11.83;;;;;;;;;;5140022;28;20454;-55
2021/07/12 00:45:22;;;;;;;20.13;13.53;;;;;;;;;;5133490;28;20508;-56
2021/07/12 00:47:51;;;;;;;10.90;9.23;;;;;;;;;;5136063;28;20475;-55
2021/07/12 00:50:49;;;;;;;29.90;22.37;;;;;;;;;;5139752;28;20430;-52
2021/07/12 00:53:17;;;;;;;17.13;14.50;;;;;;;;;;5139381;28;20516;-51
2021/07/12 00:55:46;;;;;;;14.63;11.87;;;;;;;;;;5139847;28;20454;-54
2021/07/12 00:58:23;;;;;;;14.70;9.80;;;;;;;;;;5139814;28;20453;-55
2021/07/12 01:00:52;;;;;;;10.57;9.53;;;;;;;;;;5152510;27;20489;-52
2021/07/12 01:03:20;;;;;;;11.07;9.97;;;;;;;;;;5160667;27;20452;-57
2021/07/12 01:05:59;;;;;;;10.07;8.97;;;;;;;;;;5160091;27;20445;-53
2021/07/12 01:08:28;;;;;;;11.00;9.80;;;;;;;;;;5159753;27;20437;-54
2021/07/12 01:11:00;;;;;;;14.83;10.57;;;;;;;;;;5159356;27;20442;-54
2021/07/12 01:13:48;;;;;;;11.37;9.67;;;;;;;;;;5160220;27;20488;-54
2021/07/12 01:16:19;;;;;;;14.70;10.53;;;;;;;;;;5159921;27;20458;-54
2021/07/12 01:18:51;;;;;;;12.10;10.90;;;;;;;;;;5159886;27;20454;-55
2021/07/12 01:21:39;;;;;;;17.93;14.90;;;;;;;;;;5139515;28;20446;-52
2021/07/12 01:24:38;;;;;;;15.67;11.33;;;;;;;;;;5113729;28;20445;-56
2021/07/12 01:27:30;;;;;;;12.80;11.47;;;;;;;;;;5138940;28;20483;-56
2021/07/12 01:30:04;;;;;;;13.40;12.00;;;;;;;;;;5137201;28;20497;-53
2021/07/12 01:32:39;;;;;;;13.67;11.73;;;;;;;;;;5139147;28;20464;-52
2021/07/12 01:35:26;;;;;;;14.13;11.90;;;;;;;;;;5139406;28;20502;-53
2021/07/12 01:38:00;;;;;;;13.77;11.40;;;;;;;;;;5152687;27;20493;-52
2021/07/12 01:40:29;;;;;;;12.03;10.83;;;;;;;;;;5159695;27;20650;-54
2021/07/12 01:43:02;;;;;;;14.03;12.23;;;;;;;;;;5158487;27;20449;-53
2021/07/12 01:45:32;;;;;;;14.70;12.53;;;;;;;;;;5158938;27;20461;-52
2021/07/12 01:48:20;;;;;;;14.70;10.17;;;;;;;;;;5158601;27;20436;-53
2021/07/12 01:50:52;;;;;;;15.73;11.87;;;;;;;;;;5158580;27;20461;-56
2021/07/12 01:53:22;;;;;;;16.13;11.70;;;;;;;;;;5159152;27;20485;-55
2021/07/12 01:56:02;;;;;;;17.40;11.10;;;;;;;;;;5158965;27;20467;-54
2021/07/12 01:58:32;;;;;;;11.90;10.70;;;;;;;;;;5158273;27;20433;-53
2021/07/12 02:01:00;;;;;;;14.70;12.13;;;;;;;;;;5152191;27;20545;-55
2021/07/12 02:06:35;;;;;;;13.57;12.20;;;;;;;;;;5135912;28;20515;-52
2021/07/12 02:09:05;;;;;;;12.80;11.50;;;;;;;;;;5138531;28;20480;-53
2021/07/12 02:11:46;;;;;;;13.50;11.43;;;;;;;;;;5128998;28;20522;-54
2021/07/12 02:14:14;;;;;;;15.30;10.53;;;;;;;;;;5118267;28;20490;-56
2021/07/12 02:16:42;;;;;;;12.73;11.40;;;;;;;;;;5132999;28;20447;-54
2021/07/12 02:19:11;;;;;;;12.20;10.80;;;;;;;;;;5138397;28;20450;-54
2021/07/12 02:21:41;;;;;;;14.50;10.10;;;;;;;;;;5137080;28;20438;-56
2021/07/12 02:24:08;;;;;;;12.30;10.60;;;;;;;;;;5135626;28;20447;-54
2021/07/12 02:26:47;;;;;;;17.20;10.83;;;;;;;;;;5126339;28;20945;-53
2021/07/12 02:29:18;;;;;;;12.33;10.87;;;;;;;;;;5138109;28;20622;-53
2021/07/12 02:31:46;;;;;;;12.90;11.60;;;;;;;;;;5138122;28;20442;-54
2021/07/12 02:34:13;;;;;;;12.53;11.23;;;;;;;;;;5138130;28;20490;-53
2021/07/12 02:36:42;;;;;;;11.73;10.63;;;;;;;;;;5137447;28;20454;-55
2021/07/12 02:39:12;;;;;;;12.47;11.27;;;;;;;;;;5119184;27;20459;-52
2021/07/12 02:41:40;;;;;;;14.67;11.20;;;;;;;;;;5149928;27;20480;-51
2021/07/12 02:44:10;;;;;;;13.93;12.53;;;;;;;;;;5151170;27;20472;-55
2021/07/12 02:46:51;;;;;;;15.80;13.00;;;;;;;;;;5137407;28;20454;-56
2021/07/12 02:49:19;;;;;;;14.87;11.57;;;;;;;;;;5138617;27;20448;-56
2021/07/12 02:51:49;;;;;;;18.70;13.17;;;;;;;;;;5150094;27;20449;-54
2021/07/12 02:54:23;;;;;;;15.47;12.77;;;;;;;;;;5158445;27;20497;-55
2021/07/12 02:56:51;;;;;;;15.30;11.77;;;;;;;;;;5158902;27;20468;-55
2021/07/12 02:59:18;;;;;;;15.73;13.03;;;;;;;;;;5158325;27;20473;-53
2021/07/12 03:01:53;;;;;;;17.60;13.63;;;;;;;;;;5157856;27;20447;-54
2021/07/12 03:04:20;;;;;;;17.00;15.03;;;;;;;;;;5157809;27;20449;-58
2021/07/12 03:06:54;;;;;;;15.00;13.10;;;;;;;;;;5158773;27;20449;-61
2021/07/12 03:15:31;;;;;;;16.00;14.37;;;;;;;;;;5132791;27;20465;-51
2021/07/12 03:17:58;;;;;;;18.97;13.97;;;;;;;;;;5115120;28;20438;-56
2021/07/12 03:20:56;;;;;;;16.50;14.03;;;;;;;;;;5096900;28;20456;-56
2021/07/12 03:23:25;;;;;;;18.33;14.10;;;;;;;;;;5096867;28;20486;-52
2021/07/12 03:25:54;;;;;;;15.83;12.90;;;;;;;;;;5097090;28;20854;-54
2021/07/12 03:31:27;;;;;;;16.10;14.40;;;;;;;;;;5096743;28;20492;-54
2021/07/12 03:34:02;;;;;;;17.13;14.07;;;;;;;;;;5096070;28;20484;-55
2021/07/12 03:36:30;;;;;;;18.57;13.90;;;;;;;;;;5108624;28;20789;-57
2021/07/12 03:39:01;;;;;;;15.30;13.27;;;;;;;;;;5115767;28;20461;-56
2021/07/12 03:41:44;;;;;;;16.83;13.33;;;;;;;;;;5096123;28;20447;-50
2021/07/12 03:44:12;;;;;;;18.23;15.67;;;;;;;;;;5096175;28;20456;-53
2021/07/12 03:46:42;;;;;;;18.13;14.70;;;;;;;;;;5096651;28;20451;-56
2021/07/12 03:52:17;;;;;;;17.20;13.57;;;;;;;;;;5097813;28;20423;-55
2021/07/12 03:54:47;;;;;;;21.57;14.90;;;;;;;;;;5157216;28;20469;-56
2021/07/12 03:57:15;;;;;;;19.10;14.27;;;;;;;;;;5157399;27;20906;-56
2021/07/12 04:00:03;;;;;;;15.57;13.90;;;;;;;;;;5157425;27;20441;-54
2021/07/12 04:02:32;;;;;;;15.50;13.83;;;;;;;;;;5157984;27;20425;-56
2021/07/12 04:04:59;;;;;;;16.50;14.77;;;;;;;;;;5157611;27;20453;-54
2021/07/12 04:07:49;;;;;;;28.13;15.07;;;;;;;;;;5157307;27;20444;-55
2021/07/12 04:10:19;;;;;;;18.43;13.70;;;;;;;;;;5156771;28;20461;-53
2021/07/12 04:12:49;;;;;;;15.73;14.03;;;;;;;;;;5157159;28;20509;-54
2021/07/12 04:15:37;;;;;;;16.10;13.07;;;;;;;;;;5157558;28;20896;-56
2021/07/12 04:18:05;;;;;;;14.70;12.20;;;;;;;;;;5157397;28;20461;-55
2021/07/12 04:20:35;;;;;;;18.13;13.77;;;;;;;;;;5157526;28;20445;-55
2021/07/12 04:26:08;;;;;;;15.90;14.30;;;;;;;;;;5148099;27;20400;-55
2021/07/12 04:28:36;;;;;;;17.43;12.37;;;;;;;;;;5157054;28;20518;-51
2021/07/12 04:31:14;;;;;;;15.90;12.90;;;;;;;;;;5156953;27;20498;-56
2021/07/12 04:33:41;;;;;;;18.43;13.80;;;;;;;;;;5126881;28;20506;-53
2021/07/12 04:36:14;;;;;;;16.93;12.63;;;;;;;;;;5115215;28;20443;-56
2021/07/12 04:38:51;;;;;;;13.43;11.87;;;;;;;;;;5111001;28;20506;-57
2021/07/12 04:41:24;;;;;;;15.13;12.17;;;;;;;;;;5132622;28;20479;-53
2021/07/12 04:43:54;;;;;;;16.00;12.70;;;;;;;;;;5152682;27;20517;-58
2021/07/12 04:46:21;;;;;;;13.70;12.33;;;;;;;;;;5119645;28;20455;-53
2021/07/12 04:48:49;;;;;;;15.73;12.47;;;;;;;;;;5119978;28;20435;-52
2021/07/12 04:51:24;;;;;;;15.00;13.07;;;;;;;;;;5119504;28;20451;-54
2021/07/12 04:53:51;;;;;;;16.63;12.40;;;;;;;;;;5119486;28;20504;-53
2021/07/12 04:56:19;;;;;;;18.77;11.97;;;;;;;;;;5134955;28;20458;-55
2021/07/12 04:59:03;;;;;;;16.10;13.47;;;;;;;;;;5120606;28;20459;-55
2021/07/12 05:01:33;;;;;;;14.57;12.50;;;;;;;;;;5118727;28;20447;-54
2021/07/12 05:04:01;;;;;;;14.70;12.97;;;;;;;;;;5118595;28;20416;-56
2021/07/12 05:06:29;;;;;;;16.80;13.20;;;;;;;;;;5118941;28;20503;-54
2021/07/12 05:08:56;;;;;;;18.47;12.17;;;;;;;;;;5118529;28;20477;-55
2021/07/12 05:11:24;;;;;;;13.97;12.47;;;;;;;;;;5118634;28;20439;-57
2021/07/12 05:13:52;;;;;;;14.10;12.33;;;;;;;;;;5118357;28;20661;-55
2021/07/12 05:16:21;;;;;;;15.97;10.80;;;;;;;;;;5118686;28;20436;-55
2021/07/12 05:18:57;;;;;;;13.60;11.23;;;;;;;;;;5118804;28;20621;-57
2021/07/12 05:21:24;;;;;;;14.60;12.30;;;;;;;;;;5118632;28;20459;-57
2021/07/12 05:23:52;;;;;;;13.20;11.77;;;;;;;;;;5118511;28;20443;-53
2021/07/12 05:26:37;;;;;;;16.10;12.63;;;;;;;;;;5133681;28;20466;-53
2021/07/12 05:29:04;;;;;;;14.73;12.80;;;;;;;;;;5153801;27;20489;-55
2021/07/12 05:31:33;;;;;;;13.00;11.63;;;;;;;;;;5155416;27;20451;-56
2021/07/12 05:34:34;;;;;;;14.93;11.90;;;;;;;;;;5143557;27;20457;-56
2021/07/12 05:37:01;;;;;;;11.63;10.43;;;;;;;;;;5140905;27;20490;-55
2021/07/12 05:39:29;;;;;;;14.20;11.37;;;;;;;;;;5138735;28;20913;-56
2021/07/12 05:41:57;;;;;;;13.23;10.80;;;;;;;;;;5138835;28;20925;-57
2021/07/12 05:44:29;;;;;;;12.03;10.73;;;;;;;;;;5144842;27;20609;-57
2021/07/12 05:47:07;;;;;;;14.13;11.90;;;;;;;;;;5159241;27;20434;-55
2021/07/12 05:49:35;;;;;;;13.80;11.30;;;;;;;;;;5154230;27;20450;-53
2021/07/12 05:52:07;;;;;;;12.40;11.20;;;;;;;;;;5159133;27;20450;-54
2021/07/12 05:54:51;;;;;;;14.47;11.03;;;;;;;;;;5158856;27;20492;-56
2021/07/12 05:57:18;;;;;;;12.47;10.43;;;;;;;;;;5158650;27;20482;-56
2021/07/12 05:59:46;;;;;;;12.80;10.13;;;;;;;;;;5159230;27;20446;-53
2021/07/12 06:02:36;;;;;;;13.17;10.73;;;;;;;;;;5158677;27;20438;-55
2021/07/12 06:05:05;;;;;;;16.70;11.03;;;;;;;;;;5141325;27;20529;-55
2021/07/12 06:07:33;;;;;;;14.07;11.53;;;;;;;;;;5158932;27;20426;-56
2021/07/12 06:10:04;;;;;;;10.60;9.43;;;;;;;;;;5159120;27;20456;-56
2021/07/12 06:12:31;;;;;;;16.03;9.40;;;;;;;;;;5159165;27;20460;-57
2021/07/12 06:14:59;;;;;;;10.13;9.13;;;;;;;;;;5158731;27;20774;-57
2021/07/12 06:20:32;;;;;;;11.30;9.77;;;;;;;;;;5142338;27;20514;-59
2021/07/12 06:23:01;;;;;;;12.20;9.70;;;;;;;;;;5138737;27;20450;-56
2021/07/12 06:25:50;;;;;;;11.07;9.87;;;;;;;;;;5138769;27;20446;-56
2021/07/12 06:28:17;;;;;;;10.30;8.57;;;;;;;;;;5138470;28;20457;-53
2021/07/12 06:30:45;;;;;;;14.20;10.00;;;;;;;;;;5121381;28;20428;-57
2021/07/12 06:36:18;;;;;;;16.83;10.77;;;;;;;;;;5137727;28;20448;-54
2021/07/12 06:38:46;;;;;;;12.27;10.50;;;;;;;;;;5137889;28;20434;-57
2021/07/12 06:41:19;;;;;;;11.37;9.03;;;;;;;;;;5134309;28;20460;-58
2021/07/12 06:43:46;;;;;;;16.17;9.53;;;;;;;;;;5135494;28;20480;-57
2021/07/12 06:46:23;;;;;;;9.00;8.10;;;;;;;;;;5138799;28;20441;-56
2021/07/12 06:48:52;;;;;;;10.53;9.03;;;;;;;;;;5138145;28;20465;-58
2021/07/12 06:51:21;;;;;;;9.10;8.20;;;;;;;;;;5137397;28;20431;-59
2021/07/12 06:53:48;;;;;;;11.93;9.07;;;;;;;;;;5137155;28;20520;-55
2021/07/12 06:56:16;;;;;;;12.37;8.70;;;;;;;;;;5137250;28;20463;-57
2021/07/12 06:58:44;;;;;;;11.63;8.90;;;;;;;;;;5137616;28;20450;-55
2021/07/12 07:01:24;;;;;;;9.83;7.53;;;;;;;;;;5126190;28;20463;-57
2021/07/12 07:03:51;;;;;;;12.40;9.70;;;;;;;;;;5116716;28;20460;-58
2021/07/12 07:06:18;;;;;;;13.10;10.80;;;;;;;;;;5116851;28;20463;-58
2021/07/12 07:08:57;;;;;;;9.40;8.20;;;;;;;;;;5115543;28;20474;-58
2021/07/12 07:11:24;;;;;;;8.83;7.93;;;;;;;;;;5116602;28;20523;-56
2021/07/12 07:13:51;;;;;;;9.07;8.20;;;;;;;;;;5116554;28;20473;-57
2021/07/12 07:19:22;;;;;;;8.40;7.50;;;;;;;;;;5126453;28;20496;-57
2021/07/12 07:21:54;;;;;;;8.53;7.67;;;;;;;;;;5136164;28;20438;-56
2021/07/12 07:24:37;;;;;;;9.50;8.30;;;;;;;;;;5136919;28;20491;-57
2021/07/12 07:27:05;;;;;;;9.40;8.40;;;;;;;;;;5137216;28;20544;-56
2021/07/12 07:29:35;;;;;;;8.70;7.27;;;;;;;;;;5137772;28;20671;-56
2021/07/12 07:32:29;;;;;;;12.80;7.80;;;;;;;;;;5119448;28;20472;-55
2021/07/12 07:34:57;;;;;;;10.27;7.30;;;;;;;;;;5122132;28;20490;-58
2021/07/12 07:37:24;;;;;;;9.57;7.53;;;;;;;;;;5137347;28;20514;-56
2021/07/12 07:39:56;;;;;;;7.90;6.90;;;;;;;;;;5136693;28;20493;-56
2021/07/12 07:42:25;;;;;;;7.40;6.63;;;;;;;;;;5130677;28;20448;-57
2021/07/12 07:45:14;;;;;;;10.10;7.30;;;;;;;;;;5153411;27;20475;-57
2021/07/12 07:47:41;;;;;;;8.87;6.73;;;;;;;;;;5155820;27;20552;-56
2021/07/12 07:50:09;;;;;;;8.17;7.13;;;;;;;;;;5157447;27;20438;-58
2021/07/12 07:55:42;;;;;;;10.73;6.30;;;;;;;;;;5140246;27;20490;-59
2021/07/12 07:58:13;;;;;;;8.80;6.10;;;;;;;;;;5157913;28;20425;-56
2021/07/12 08:00:43;;;;;;;10.40;5.90;;;;;;;;;;5157533;27;20460;-58
2021/07/12 08:03:11;;;;;;;10.00;5.90;;;;;;;;;;5157055;28;20455;-55
2021/07/12 08:05:39;;;;;;;7.37;6.23;;;;;;;;;;5156764;27;20450;-53
2021/07/12 08:08:40;;;;;;;6.37;5.77;;;;;;;;;;5157416;28;20447;-58
2021/07/12 08:11:09;;;;;;;6.67;5.40;;;;;;;;;;5151552;27;20501;-58
2021/07/12 08:13:36;;;;;;;7.13;6.03;;;;;;;;;;5156108;27;20444;-56
2021/07/12 08:16:04;;;;;;;10.10;6.87;;;;;;;;;;5156353;27;20510;-57
2021/07/12 08:18:31;;;;;;;6.23;5.27;;;;;;;;;;5157118;27;20467;-57
2021/07/12 08:21:25;;;;;;;5.97;4.90;;;;;;;;;;5160219;27;20453;-57
2021/07/12 08:24:10;;;;;;;6.70;5.43;;;;;;;;;;5159052;27;20505;-56
2021/07/12 08:26:41;;;;;;;24.67;5.20;;;;;;;;;;5160769;27;20460;-58
2021/07/12 08:29:09;;;;;;;7.13;5.50;;;;;;;;;;5160283;27;20421;-57
2021/07/12 08:31:36;;;;;;;6.03;4.63;;;;;;;;;;5160828;27;20424;-57
2021/07/12 08:34:07;;;;;;;7.53;5.47;;;;;;;;;;5160212;27;20452;-54
2021/07/12 08:36:35;;;;;;;6.50;4.47;;;;;;;;;;5159960;27;20540;-55
2021/07/12 08:39:02;;;;;;;4.90;4.00;;;;;;;;;;5160481;27;20465;-56
2021/07/12 08:44:37;;;;;;;5.23;3.63;;;;;;;;;;5157538;27;20474;-58
2021/07/12 08:47:15;;;;;;;4.73;4.00;;;;;;;;;;5159765;27;20471;-55
2021/07/12 08:50:01;;;;;;;4.30;3.00;;;;;;;;;;5159951;27;20456;-56
2021/07/12 08:52:31;;;;;;;4.93;4.17;;;;;;;;;;5161237;27;20456;-54
2021/07/12 08:58:08;;;;;;;5.07;3.50;;;;;;;;;;5127731;27;20545;-57
2021/07/12 09:00:41;;;;;;;4.27;3.83;;;;;;;;;;5138899;28;20449;-56
2021/07/12 09:06:23;;;;;;;4.37;3.10;;;;;;;;;;5140266;28;20401;-59
2021/07/12 09:08:53;;;;;;;3.77;2.57;;;;;;;;;;5139705;28;20441;-56
2021/07/12 09:11:35;;;;;;;6.60;2.93;;;;;;;;;;5139411;27;20469;-57
2021/07/12 09:14:07;;;;;;;7.50;3.83;;;;;;;;;;5139348;27;20612;-55
2021/07/12 09:16:37;;;;;;;8.40;3.13;;;;;;;;;;5139222;27;20479;-58
2021/07/12 09:19:06;;;;;;;3.47;2.40;;;;;;;;;;5139132;27;20465;-57
2021/07/12 09:21:35;;;;;;;8.30;6.57;;;;;;;;;;5141959;27;20453;-57
2021/07/12 09:24:21;;;;;;;4.00;3.20;;;;;;;;;;5126745;28;20550;-57
2021/07/12 09:26:49;;;;;;;5.40;3.10;;;;;;;;;;5119830;28;20443;-53
2021/07/12 09:29:18;;;;;;;7.73;2.80;;;;;;;;;;5118679;28;20462;-55
2021/07/12 09:35:22;;;;;;;3.23;2.60;;;;;;;;;;5133439;27;20485;-57
2021/07/12 09:38:09;;;;;;;4.50;2.57;;;;;;;;;;5137797;27;20449;-55
2021/07/12 09:40:37;;;;;;;3.10;2.40;;;;;;;;;;5139023;27;20478;-55
2021/07/12 09:43:07;;;;;;;5.33;2.70;;;;;;;;;;5138181;27;20462;-57
2021/07/12 09:45:44;;;;;;;3.07;2.40;;;;;;;;;;5138007;27;20450;-59
2021/07/12 09:48:17;;;;;;;4.60;3.10;;;;;;;;;;5138721;27;20421;-58
2021/07/12 09:51:01;;;;;;;8.80;2.53;;;;;;;;;;5138208;27;20446;-57
2021/07/12 09:53:33;;;;;;;7.97;3.87;;;;;;;;;;5138169;27;20426;-57
2021/07/12 09:56:10;;;;;;;3.27;2.33;;;;;;;;;;5138263;27;20766;-57
2021/07/12 09:58:43;;;;;;;4.60;2.53;;;;;;;;;;5137431;28;20478;-59
2021/07/12 10:01:21;;;;;;;6.50;2.50;;;;;;;;;;5137673;28;20442;-60
2021/07/12 10:03:48;;;;;;;4.30;2.30;;;;;;;;;;5138175;27;20453;-58
2021/07/12 10:06:35;;;;;;;4.30;2.30;;;;;;;;;;5137932;27;20427;-59
2021/07/12 10:09:04;;;;;;;6.33;3.10;;;;;;;;;;5153490;27;20463;-55
2021/07/12 10:11:32;;;;;;;2.90;1.93;;;;;;;;;;5141189;27;20429;-55
2021/07/12 10:14:11;;;;;;;5.13;2.20;;;;;;;;;;5145335;27;20446;-57
2021/07/12 10:16:38;;;;;;;3.37;2.43;;;;;;;;;;5131942;28;20500;-58
2021/07/12 10:19:06;;;;;;;5.30;2.97;;;;;;;;;;5137318;28;20442;-54
2021/07/12 10:21:41;;;;;;;5.30;2.63;;;;;;;;;;5137933;28;20450;-56
2021/07/12 10:24:10;;;;;;;5.10;2.90;;;;;;;;;;5137231;28;20441;-57
2021/07/12 10:29:41;;;;;;;5.17;2.30;;;;;;;;;;5137233;27;20457;-60
2021/07/12 10:32:10;;;;;;;3.53;2.67;;;;;;;;;;5137071;28;20439;-57
2021/07/12 10:37:42;;;;;;;3.80;2.77;;;;;;;;;;5133826;28;20673;-55
2021/07/12 10:40:22;;;;;;;3.00;2.10;;;;;;;;;;5131733;28;20458;-55
2021/07/12 10:42:53;;;;;;;3.90;2.60;;;;;;;;;;5137033;28;20447;-58
2021/07/12 10:45:22;;;;;;;2.73;2.03;;;;;;;;;;5137796;28;20447;-54
2021/07/12 10:47:50;;;;;;;4.30;2.33;;;;;;;;;;5136730;27;20434;-56
2021/07/12 10:53:39;;;;;;;6.43;1.87;;;;;;;;;;5137368;28;20412;-56
2021/07/12 10:56:44;;;;;;;2.90;1.70;;;;;;;;;;5137529;27;20473;-57
2021/07/12 10:59:24;;;;;;;3.57;2.93;;;;;;;;;;5118113;28;20494;-55
2021/07/12 11:01:52;;;;;;;3.23;2.20;;;;;;;;;;5136744;28;20449;-58
2021/07/12 11:07:39;;;;;;;2.77;2.10;;;;;;;;;;5136602;28;20511;-56
2021/07/12 11:13:47;;;;;;;3.57;2.60;;;;;;;;;;5139588;27;20515;-57
2021/07/12 11:16:20;;;;;;;3.07;2.17;;;;;;;;;;5114098;28;20483;-57
2021/07/12 11:18:48;;;;;;;3.97;2.97;;;;;;;;;;5111526;28;20519;-58
2021/07/12 11:21:17;;;;;;;5.97;2.67;;;;;;;;;;5105544;28;20440;-58
2021/07/12 11:23:58;;;;;;;3.37;2.10;;;;;;;;;;5095034;28;20491;-58
2021/07/12 11:26:42;;;;;;;4.20;2.73;;;;;;;;;;5101475;28;20455;-56
2021/07/12 11:29:21;;;;;;;3.60;2.67;;;;;;;;;;5115903;28;20467;-58
2021/07/12 11:32:05;;;;;;;3.10;2.40;;;;;;;;;;5097829;28;20440;-58
2021/07/12 11:34:42;;;;;;;3.37;2.23;;;;;;;;;;5114620;28;20470;-59
2021/07/12 11:37:10;;;;;;;5.07;2.20;;;;;;;;;;5115347;28;20522;-56
2021/07/12 11:39:39;;;;;;;6.30;3.57;;;;;;;;;;5099316;28;20564;-57
2021/07/12 11:42:24;;;;;;;4.50;2.73;;;;;;;;;;5114772;28;20477;-54
2021/07/12 11:44:53;;;;;;;3.53;2.50;;;;;;;;;;5113718;28;20461;-57
2021/07/12 11:47:25;;;;;;;3.10;2.43;;;;;;;;;;5097852;28;20470;-54
2021/07/12 11:50:18;;;;;;;3.90;2.70;;;;;;;;;;5099646;28;20517;-56
2021/07/12 11:52:48;;;;;;;3.33;2.07;;;;;;;;;;5106989;28;20751;-57
2021/07/12 11:55:16;;;;;;;5.37;2.40;;;;;;;;;;5115644;28;20458;-58
2021/07/12 11:57:52;;;;;;;3.60;2.93;;;;;;;;;;5109993;28;20474;-58
2021/07/12 12:03:58;;;;;;;3.60;2.43;;;;;;;;;;5120822;28;20421;-57
2021/07/12 12:06:31;;;;;;;3.77;2.40;;;;;;;;;;5109248;28;20459;-58
2021/07/12 12:09:01;;;;;;;6.13;3.20;;;;;;;;;;5109571;28;20443;-52
2021/07/12 12:11:52;;;;;;;3.50;2.07;;;;;;;;;;5100237;28;20451;-56
2021/07/12 12:14:25;;;;;;;4.93;2.80;;;;;;;;;;5119418;28;20487;-60
2021/07/12 12:16:52;;;;;;;2.60;1.60;;;;;;;;;;5112874;28;20498;-56
2021/07/12 12:19:40;;;;;;;3.10;2.30;;;;;;;;;;5108899;28;20455;-56
2021/07/12 12:22:09;;;;;;;7.10;3.03;;;;;;;;;;5119441;28;20500;-57
2021/07/12 12:24:41;;;;;;;5.17;3.90;;;;;;;;;;5119918;28;20776;-57
2021/07/12 12:27:08;;;;;;;3.33;2.40;;;;;;;;;;5119638;28;20459;-56
2021/07/12 12:29:38;;;;;;;4.10;3.10;;;;;;;;;;5114277;28;20459;-54
2021/07/12 12:32:06;;;;;;;18.43;11.10;;;;;;;;;;5102913;28;20440;-55
2021/07/12 12:34:36;;;;;;;6.60;5.20;;;;;;;;;;5111504;28;20819;-53
2021/07/12 12:37:04;;;;;;;5.00;2.30;;;;;;;;;;5101250;28;20574;-55
2021/07/12 12:39:52;;;;;;;4.33;2.40;;;;;;;;;;5100397;28;20535;-56
2021/07/12 12:42:39;;;;;;;6.33;5.70;;;;;;;;;;5096440;28;20460;-58
2021/07/12 12:45:08;;;;;;;5.23;3.70;;;;;;;;;;5113873;28;20451;-58
2021/07/12 12:47:37;;;;;;;8.00;6.73;;;;;;;;;;5106764;28;20451;-57
2021/07/12 12:52:47;;;;;;;12.10;2.97;;;;;;;;;;5156827;27;20476;-58
2021/07/12 12:55:17;;;;;;;7.97;3.53;;;;;;;;;;5159444;27;20200;-56
2021/07/12 13:00:50;;;;;;;8.73;3.33;;;;;;;;;;5157934;27;20456;-54
2021/07/12 13:03:19;;;;;;;8.13;5.27;;;;;;;;;;5159439;27;20588;-57
2021/07/12 13:06:07;;;;;;;5.50;2.50;;;;;;;;;;5159556;27;20449;-55
2021/07/12 13:08:41;;;;;;;12.30;10.67;;;;;;;;;;5159648;27;20440;-56
2021/07/12 13:11:40;;;;;;;11.20;6.67;;;;;;;;;;5159050;27;20505;-59
2021/07/12 13:14:08;;;;;;;13.03;5.87;;;;;;;;;;5143986;27;20490;-55
2021/07/12 13:16:39;;;;;;;11.93;4.30;;;;;;;;;;5159607;27;20484;-56
2021/07/12 13:19:13;;;;;;;4.63;2.20;;;;;;;;;;5158589;27;20418;-57
2021/07/12 13:21:49;;;;;;;3.53;2.20;;;;;;;;;;5137978;28;20457;-56
2021/07/12 13:24:19;;;;;;;4.90;2.50;;;;;;;;;;5138246;28;20438;-54
2021/07/12 13:26:56;;;;;;;3.70;2.93;;;;;;;;;;5136972;28;20453;-57
2021/07/12 13:29:23;;;;;;;5.80;4.50;;;;;;;;;;5156353;27;20449;-55
2021/07/12 13:32:04;;;;;;;11.63;8.17;;;;;;;;;;5157838;27;20454;-51
2021/07/12 13:34:34;;;;;;;9.03;7.47;;;;;;;;;;5157594;27;20954;-54
2021/07/12 13:37:01;;;;;;;5.73;3.03;;;;;;;;;;5158186;27;20534;-58
2021/07/12 13:39:41;;;;;;;6.67;5.00;;;;;;;;;;5152086;27;20464;-55
2021/07/12 13:42:30;;;;;;;9.63;8.63;;;;;;;;;;5161159;27;20468;-58
2021/07/12 13:45:00;;;;;;;5.93;3.27;;;;;;;;;;5157310;27;20457;-58
2021/07/12 13:47:29;;;;;;;4.47;3.13;;;;;;;;;;5161815;27;20457;-57
2021/07/12 13:49:56;;;;;;;15.33;13.10;;;;;;;;;;5135118;28;20470;-56
2021/07/12 13:52:23;;;;;;;5.80;4.67;;;;;;;;;;5137072;28;20472;-57
2021/07/12 13:54:58;;;;;;;5.97;3.67;;;;;;;;;;5137028;28;20450;-56
2021/07/12 13:57:27;;;;;;;5.77;3.30;;;;;;;;;;5137077;28;20471;-57
2021/07/12 14:00:00;;;;;;;5.40;3.90;;;;;;;;;;5137673;28;20423;-58
2021/07/12 14:02:49;;;;;;;6.20;4.37;;;;;;;;;;5137718;27;20517;-57
2021/07/12 14:05:28;;;;;;;4.53;3.03;;;;;;;;;;5137184;28;20454;-56
2021/07/12 14:08:06;;;;;;;3.60;2.30;;;;;;;;;;5136803;27;20470;-58
2021/07/12 14:10:34;;;;;;;5.60;3.00;;;;;;;;;;5137190;27;20447;-57
2021/07/12 14:13:04;;;;;;;4.13;3.00;;;;;;;;;;5137278;27;20450;-58
2021/07/12 14:15:50;;;;;;;5.10;3.10;;;;;;;;;;5137626;28;20831;-58
2021/07/12 14:18:18;;;;;;;11.43;7.87;;;;;;;;;;5137180;28;20644;-59
2021/07/12 14:21:05;;;;;;;9.67;2.80;;;;;;;;;;5132873;27;20569;-56
2021/07/12 14:23:36;;;;;;;5.00;2.93;;;;;;;;;;5121370;28;20461;-57
2021/07/12 14:26:03;;;;;;;3.57;2.50;;;;;;;;;;5137010;27;20438;-54
2021/07/12 14:28:31;;;;;;;3.27;2.43;;;;;;;;;;5136350;28;20463;-56
2021/07/12 14:30:59;;;;;;;4.20;2.60;;;;;;;;;;5132989;28;20467;-53
2021/07/12 14:33:26;;;;;;;6.20;2.63;;;;;;;;;;5116310;28;20510;-57
2021/07/12 14:36:10;;;;;;;4.63;2.23;;;;;;;;;;5135970;28;20460;-56
2021/07/12 14:38:37;;;;;;;3.50;2.30;;;;;;;;;;5139977;27;20499;-55
2021/07/12 14:41:05;;;;;;;4.60;2.10;;;;;;;;;;5156844;27;20491;-55
2021/07/12 14:43:39;;;;;;;5.20;2.30;;;;;;;;;;5157592;27;20675;-54
2021/07/12 14:46:07;;;;;;;4.13;3.20;;;;;;;;;;5145322;27;20442;-51
2021/07/12 14:48:43;;;;;;;4.70;2.93;;;;;;;;;;5156544;27;20490;-55
2021/07/12 14:51:23;;;;;;;3.80;2.70;;;;;;;;;;5157108;27;20479;-57
2021/07/12 14:53:53;;;;;;;7.60;2.70;;;;;;;;;;5139968;27;20506;-56
2021/07/12 14:56:24;;;;;;;4.90;3.40;;;;;;;;;;5136276;28;20458;-55
2021/07/12 14:58:51;;;;;;;4.70;2.90;;;;;;;;;;5126723;27;20457;-57
2021/07/12 15:01:18;;;;;;;9.23;3.80;;;;;;;;;;5130687;28;20488;-57
2021/07/12 15:03:56;;;;;;;4.13;3.10;;;;;;;;;;5139164;27;20425;-55
2021/07/12 15:06:25;;;;;;;4.60;2.40;;;;;;;;;;5132907;28;20446;-55
2021/07/12 15:08:53;;;;;;;4.77;3.10;;;;;;;;;;5135527;28;20426;-56
2021/07/12 15:11:34;;;;;;;4.57;2.90;;;;;;;;;;5135666;27;20454;-54
2021/07/12 15:14:04;;;;;;;3.03;2.00;;;;;;;;;;5143286;27;20508;-60
2021/07/12 15:16:39;;;;;;;11.03;5.43;;;;;;;;;;5154760;27;20478;-55
2021/07/12 15:19:24;;;;;;;4.67;3.20;;;;;;;;;;5153734;27;20436;-57
2021/07/12 15:21:55;;;;;;;4.23;3.20;;;;;;;;;;5154674;27;20522;-55
2021/07/12 15:24:29;;;;;;;3.10;2.20;;;;;;;;;;5154306;27;20445;-55
2021/07/12 15:27:00;;;;;;;5.20;3.90;;;;;;;;;;5154517;27;20456;-57
2021/07/12 15:29:29;;;;;;;4.60;3.00;;;;;;;;;;5154389;27;20453;-53
2021/07/12 15:31:56;;;;;;;4.57;3.10;;;;;;;;;;5157066;27;20517;-54
2021/07/12 15:34:26;;;;;;;4.70;3.20;;;;;;;;;;5148714;27;20506;-56
2021/07/12 15:36:55;;;;;;;4.00;2.90;;;;;;;;;;5155932;27;20480;-57
2021/07/12 15:39:23;;;;;;;4.17;2.80;;;;;;;;;;5155593;27;20469;-58
2021/07/12 15:41:55;;;;;;;3.20;2.40;;;;;;;;;;5156185;27;20457;-56
2021/07/12 15:44:23;;;;;;;6.50;3.07;;;;;;;;;;5154825;27;20487;-56
2021/07/12 15:46:51;;;;;;;8.13;2.80;;;;;;;;;;5156433;27;20494;-56
2021/07/12 15:50:01;;;;;;;7.10;3.20;;;;;;;;;;5148904;28;20454;-55
2021/07/12 15:52:31;;;;;;;6.67;3.57;;;;;;;;;;5146910;28;20524;-56
2021/07/12 15:57:27;;;;;;;19.73;12.87;;;;;;;;;;5154460;27;20576;-57
2021/07/12 15:59:54;;;;;;;3.93;3.07;;;;;;;;;;5156631;27;20474;-57
2021/07/12 16:02:34;;;;;;;6.70;3.70;;;;;;;;;;5156814;28;20457;-55
2021/07/12 16:05:11;;;;;;;5.77;3.80;;;;;;;;;;5168292;27;20449;-56
2021/07/12 16:07:41;;;;;;;4.77;2.97;;;;;;;;;;5156586;27;20445;-57
2021/07/12 16:10:30;;;;;;;3.63;2.50;;;;;;;;;;5159930;27;20533;-59
2021/07/12 16:13:02;;;;;;;6.30;4.10;;;;;;;;;;5157196;28;20442;-55
2021/07/12 16:15:30;;;;;;;4.53;3.10;;;;;;;;;;5158020;27;20465;-54
2021/07/12 16:24:05;;;;;;;4.17;3.10;;;;;;;;;;5149802;27;20472;-58
2021/07/12 16:26:33;;;;;;;11.93;7.07;;;;;;;;;;5155975;27;20506;-56